Latest Weather Observations for Bendigo

IDV60801

Issued at 6:05 am EST Thursday 2 October 2014 (issued every 30 minutes, with the page automatically refreshed every 10 minutes)

About weather observations | Map of weather stations | Latest weather observations for VIC | Other Formats
Station Details ID: 081123 Name: BENDIGO AIRPORT Lat: -36.74 Lon: 144.33 Height: 208.0 m
Data from the previous 72 hours. | See also: Recent months at Bendigo
Date/Time
EST
Temp
°C
App
Temp
°C
Dew
Point
Rel
Hum
%
Delta-T
°C
Wind Press
QNH
hPa
Press
MSL
hPa
Rain
since 9 am
mm
Dir
 
Spd
km/h
Gust
km/h
Spd
kts
Gust
kts
02/06:00am 8.9 5.1 5.8 81 1.4 SW 15 20 8 11 1024.6 1024.6 0.0
02/05:30am 8.9 5.5 5.8 81 1.4 WSW 13 19 7 10 1024.4 1024.4 0.0
02/05:00am 6.9 5.5 5.4 90 0.7 SW 2 7 1 4 1024.4 1024.4 0.0
02/04:30am 6.2 5.0 4.8 91 0.6 CALM 0 0 0 0 1024.3 1024.3 0.0
02/04:00am 5.1 3.8 3.9 92 0.5 CALM 0 0 0 0 1024.4 1024.4 0.0
02/03:30am 4.5 2.7 3.3 92 0.5 SSW 2 7 1 4 1024.3 1024.3 0.0
02/03:00am 3.7 0.9 2.2 90 0.6 S 6 9 3 5 1024.6 1024.6 0.0
02/02:30am 6.0 3.5 3.7 85 1.0 SSW 6 9 3 5 1024.8 1024.8 0.0
02/02:00am 5.1 1.9 3.3 88 0.7 SSW 9 13 5 7 1024.9 1024.9 0.0
02/01:30am 3.7 2.1 2.4 91 0.5 CALM 0 2 0 1 1025.3 1025.3 0.0
02/01:00am 4.3 2.8 2.8 90 0.6 CALM 0 0 0 0 1025.3 1025.3 0.0
02/12:30am 5.3 3.8 3.0 85 1.0 CALM 0 0 0 0 1025.5 1025.5 0.0
02/12:00am 6.0 4.5 3.0 81 1.3 N 0 0 0 0 1025.6 1025.6 0.0
 
Date/Time
EST
Temp
°C
App
Temp
°C
Dew
Point
Rel
Hum
%
Delta-T
°C
Wind Press
QNH
hPa
Press
MSL
hPa
Rain
since 9 am
mm
Dir
 
Spd
km/h
Gust
km/h
Spd
kts
Gust
kts
01/11:30pm 7.2 4.6 3.4 77 1.6 SSW 6 9 3 5 1025.6 1025.6 0.0
01/11:00pm 8.3 5.6 3.6 72 2.0 SSW 7 11 4 6 1025.7 1025.7 0.0
01/10:30pm 7.2 4.7 3.8 79 1.5 SSW 6 13 3 7 1025.7 1025.7 0.0
01/10:00pm 6.3 4.8 2.9 79 1.4 CALM 0 0 0 0 1025.8 1025.8 0.0
01/09:30pm 8.7 6.0 3.5 70 2.3 S 7 11 4 6 1025.7 1025.7 0.0
01/09:00pm 9.3 5.8 3.7 68 2.5 SSW 11 17 6 9 1025.5 1025.5 0.0
01/08:30pm 8.8 5.6 3.2 68 2.4 SSW 9 13 5 7 1025.5 1025.5 0.0
01/08:00pm 10.1 7.3 3.4 63 2.9 S 7 11 4 6 1025.3 1025.3 0.0
01/07:30pm 10.7 7.2 3.5 61 3.2 S 11 17 6 9 1024.8 1024.8 0.0
01/07:00pm 11.1 7.6 3.4 59 3.4 SSW 11 19 6 10 1024.5 1024.5 0.0
01/06:30pm 12.0 8.2 3.8 57 3.7 SSW 13 19 7 10 1024.2 1024.2 0.0
01/06:00pm 13.2 8.6 3.8 53 4.3 SSW 17 28 9 15 1024.0 1024.0 0.0
01/05:30pm 13.4 8.2 3.8 52 4.4 SW 20 33 11 18 1023.9 1023.9 0.0
01/05:00pm 14.4 9.3 4.1 50 4.8 SW 20 30 11 16 1023.7 1023.6 0.0
01/04:30pm 14.4 8.7 2.9 46 5.2 SW 22 35 12 19 1023.6 1023.5 0.0
01/04:00pm 14.3 9.0 2.9 46 5.1 SW 20 30 11 16 1023.4 1023.3 0.0
01/03:30pm 14.9 8.8 2.8 44 5.5 WSW 24 30 13 16 1023.6 1023.5 0.0
01/03:00pm 16.0 9.6 3.1 42 5.9 WSW 26 33 14 18 1023.6 1023.5 0.0
01/02:30pm 14.9 10.9 2.8 44 5.5 SW 13 24 7 13 1023.5 1023.4 0.0
01/02:00pm 15.2 9.6 1.0 38 6.2 SSW 20 32 11 17 1024.1 1024.1 0.0
01/01:30pm 14.0 8.6 2.3 45 5.2 SSW 20 28 11 15 1024.0 1024.0 0.0
01/01:00pm 14.1 8.4 3.0 47 5.0 WSW 22 37 12 20 1024.1 1024.1 0.0
01/12:30pm 13.4 9.1 3.2 50 4.6 SSW 15 24 8 13 1024.2 1024.2 0.0
01/12:00pm 13.6 8.5 3.1 49 4.7 SSW 19 26 10 14 1024.4 1024.4 0.0
01/11:30am 13.6 8.5 3.9 52 4.5 SW 20 28 11 15 1024.6 1024.6 0.0
01/11:00am 12.9 6.3 4.1 55 4.0 SSW 28 37 15 20 1024.7 1024.7 0.0
01/10:30am 12.0 6.4 3.3 55 3.9 SW 22 39 12 21 1024.7 1024.7 0.0
01/10:00am 11.4 5.5 3.9 60 3.4 WSW 24 35 13 19 1024.5 1024.5 0.0
01/09:30am 11.3 5.5 4.3 62 3.2 WSW 24 35 13 19 1024.2 1024.4 0.0
01/09:00am 10.5 5.5 4.4 66 2.7 WSW 20 30 11 16 1024.0 1024.2 0.0
01/08:30am 9.2 6.1 3.6 68 2.5 SW 9 17 5 9 1023.7 1023.9 0.0
01/08:00am 8.3 6.5 3.6 72 2.0 WNW 2 7 1 4 1023.3 1023.5 0.0
01/07:30am 6.8 4.9 2.9 76 1.6 ESE 2 6 1 3 1022.9 1023.1 0.0
01/07:00am 5.9 3.1 2.9 81 1.2 NE 7 9 4 5 1022.4 1022.6 0.0
01/06:30am 5.0 1.7 2.7 85 0.9 SW 9 15 5 8 1021.9 1022.0 0.0
01/06:00am 5.1 -0.3 2.6 84 1.0 WSW 20 28 11 15 1020.9 1021.1 0.0
01/05:30am 5.1 -0.1 2.5 83 1.1 WSW 19 24 10 13 1020.4 1020.6 0.0
01/05:00am 5.4 1.0 2.6 82 1.2 WSW 15 24 8 13 1020.1 1020.3 0.0
01/04:30am 5.2 1.1 2.4 82 1.1 SW 13 20 7 11 1019.8 1020.0 0.0
01/04:00am 6.0 1.6 2.6 79 1.4 SW 15 26 8 14 1019.4 1019.6 0.0
01/03:30am 5.6 2.6 2.1 78 1.4 SW 7 13 4 7 1019.0 1019.2 0.0
01/03:00am 5.4 2.5 1.3 75 1.6 SW 6 9 3 5 1018.7 1018.9 0.0
01/02:30am 6.1 2.7 1.8 74 1.8 SW 9 15 5 8 1018.3 1018.4 0.0
01/02:00am 6.7 2.1 1.4 69 2.1 WSW 15 20 8 11 1017.8 1017.9 0.0
01/01:30am 6.9 1.5 1.2 67 2.3 WSW 19 28 10 15 1017.6 1017.7 0.0
01/01:00am 7.3 2.3 1.2 65 2.5 WSW 17 22 9 12 1017.3 1017.4 0.0
01/12:30am 7.8 1.8 1.2 63 2.7 WSW 22 30 12 16 1017.2 1017.3 0.0
01/12:00am 8.1 2.7 1.0 61 2.9 WSW 19 28 10 15 1016.7 1016.9 0.0
 
Date/Time
EST
Temp
°C
App
Temp
°C
Dew
Point
Rel
Hum
%
Delta-T
°C
Wind Press
QNH
hPa
Press
MSL
hPa
Rain
since 9 am
mm
Dir
 
Spd
km/h
Gust
km/h
Spd
kts
Gust
kts
30/11:30pm 8.3 2.7 1.5 62 2.8 WSW 20 33 11 18 1016.5 1016.7 0.0
30/11:00pm 8.0 4.3 2.5 68 2.3 WSW 11 15 6 8 1016.2 1016.4 0.0
30/10:30pm 8.2 3.8 2.7 68 2.3 WSW 15 20 8 11 1015.9 1016.1 0.0
30/10:00pm 9.0 3.9 3.0 66 2.6 WSW 19 26 10 14 1015.5 1015.7 0.0
30/09:30pm 8.5 5.0 3.4 70 2.2 SW 11 20 6 11 1015.4 1015.6 0.0
30/09:00pm 9.4 6.4 4.2 70 2.3 WSW 9 13 5 7 1014.8 1015.0 0.0
30/08:30pm 9.9 6.7 4.9 71 2.3 SW 11 17 6 9 1014.2 1014.3 0.0
30/08:00pm 10.6 7.1 5.6 71 2.3 SW 13 20 7 11 1013.7 1013.8 0.0
30/07:30pm 11.2 7.1 6.1 71 2.4 SW 17 24 9 13 1013.1 1013.2 0.0
30/07:00pm 12.3 8.2 6.1 66 3.0 WSW 17 26 9 14 1012.2 1012.3 0.0
30/06:30pm 12.5 9.0 7.2 70 2.6 SW 15 20 8 11 1011.6 1011.8 0.0
30/06:00pm 12.8 8.5 6.8 67 2.9 WSW 19 28 10 15 1011.1 1011.3 0.0
30/05:44pm 13.7 6.8 4.8 55 4.2 WSW 30 48 16 26 1010.7 1010.9 0.0
30/05:30pm 13.8 8.3 5.9 59 3.8 W 24 33 13 18 1010.5 1010.7 0.0
30/05:00pm 13.5 6.9 8.6 72 2.5 W 33 52 18 28 1009.9 1010.0 0.0
30/04:30pm 14.7 6.6 10.1 74 2.4 W 43 61 23 33 1009.1 1009.2 0.0
30/04:00pm 17.7 8.8 9.3 58 4.4 W 46 70 25 38 1008.0 1008.1 0.0
30/03:30pm 21.2 11.1 3.9 32 8.4 WNW 46 72 25 39 1006.2 1006.4 0.0
30/03:13pm 21.8 11.7 3.9 31 8.7 WNW 46 78 25 42 1005.9 1006.0 0.0
30/03:00pm 22.2 13.1 3.8 30 9.0 WNW 41 59 22 32 1005.8 1005.9 0.0
30/02:30pm 22.4 13.8 4.9 32 8.8 WNW 39 69 21 37 1005.9 1006.0 0.0
30/02:00pm 23.2 14.6 4.7 30 9.3 NW 39 65 21 35 1005.8 1005.9 0.0
30/01:38pm 23.2 13.4 5.1 31 9.1 NNW 46 67 25 36 1006.1 1006.2 0.0
30/01:36pm 23.2 13.3 4.7 30 9.3 NNW 46 63 25 34 1006.1 1006.2 0.0
30/01:30pm 23.3 14.9 5.7 32 9.0 WNW 39 59 21 32 1006.1 1006.2 0.0
30/01:00pm 22.6 13.5 6.0 34 8.5 NW 43 65 23 35 1007.0 1007.1 0.0
30/12:34pm 22.5 14.2 5.9 34 8.5 NNW 39 57 21 31 1007.6 1007.7 0.0
30/12:30pm 22.4 13.7 5.8 34 8.4 NNW 41 57 22 31 1007.5 1007.6 0.0
30/12:12pm 22.1 16.2 7.5 39 7.6 NW 28 46 15 25 1008.0 1008.1 0.0
30/12:00pm 20.5 14.0 8.2 45 6.5 NNW 32 46 17 25 1008.5 1008.6 0.0
30/11:30am 20.0 14.5 9.3 50 5.7 N 28 48 15 26 1008.9 1009.0 0.0
30/11:13am 19.1 12.9 7.8 48 5.8 N 30 50 16 27 1008.9 1009.0 0.0
30/11:00am 19.2 14.3 8.5 50 5.6 NNW 24 37 13 20 1009.4 1009.5 0.0
30/10:30am 18.4 14.1 9.2 55 4.9 N 22 33 12 18 1009.9 1010.0 0.0
30/10:00am 17.2 13.4 9.1 59 4.3 N 19 26 10 14 1010.5 1010.7 0.0
30/09:30am 16.0 12.6 9.2 64 3.5 N 17 20 9 11 1010.9 1011.1 0.0
30/09:00am 15.2 12.7 9.6 69 2.9 N 13 17 7 9 1011.1 1011.3 0.0
30/08:30am 13.8 12.0 9.5 75 2.2 NNE 9 15 5 8 1011.6 1011.8 0.0
30/08:00am 12.9 11.0 9.2 78 1.9 NNE 9 11 5 6 1012.1 1012.2 0.0
30/07:30am 11.1 10.9 9.0 87 1.1 CALM 0 0 0 0 1012.3 1012.4 0.0
30/07:00am 8.3 7.8 7.9 97 0.2 CALM 0 0 0 0 1012.3 1012.4 0.0
30/06:30am 5.3 4.2 4.9 97 0.2 CALM 0 0 0 0 1012.2 1012.3 0.0
30/06:21am 4.9 3.7 4.5 97 0.2 CALM 0 0 0 0 1012.1 1012.2 0.0
30/06:02am 4.8 3.6 4.4 97 0.2 CALM 0 0 0 0 1011.7 1011.9 0.0
30/06:00am 4.8 3.5 4.2 96 0.3 CALM 0 0 0 0 1011.7 1011.9 0.0
30/05:30am 6.1 5.1 5.8 98 0.1 CALM 0 0 0 0 1011.5 1011.7 0.0
30/05:00am 5.3 4.1 4.6 95 0.3 CALM 0 0 0 0 1011.2 1011.4 0.0
30/04:30am 5.7 4.5 4.7 93 0.4 CALM 0 0 0 0 1011.0 1011.2 0.0
30/04:00am 6.4 5.4 5.5 94 0.4 CALM 0 0 0 0 1010.9 1011.1 0.0
30/03:30am 7.4 6.2 6.5 94 0.4 NNE 2 7 1 4 1011.3 1011.5 0.0
30/03:00am 6.2 5.0 4.8 91 0.6 CALM 0 0 0 0 1011.4 1011.6 0.0
30/02:30am 7.5 6.8 6.8 95 0.3 CALM 0 0 0 0 1011.5 1011.7 0.0
30/02:00am 7.1 6.2 6.2 94 0.4 CALM 0 0 0 0 1011.6 1011.8 0.0
30/01:30am 8.0 7.2 6.6 91 0.7 CALM 0 0 0 0 1012.0 1012.1 0.0
30/01:00am 7.7 6.9 6.5 92 0.6 CALM 0 0 0 0 1012.1 1012.2 0.0
30/12:30am 8.7 8.1 7.2 90 0.7 CALM 0 0 0 0 1012.2 1012.3 0.0
30/12:00am 8.3 7.6 6.8 90 0.7 CALM 0 0 0 0 1012.5 1012.6 0.0
 
Date/Time
EST
Temp
°C
App
Temp
°C
Dew
Point
Rel
Hum
%
Delta-T
°C
Wind Press
QNH
hPa
Press
MSL
hPa
Rain
since 9 am
mm
Dir
 
Spd
km/h
Gust
km/h
Spd
kts
Gust
kts
29/11:30pm 8.7 8.0 6.8 88 0.9 CALM 0 0 0 0 1012.7 1012.8 0.0
29/11:00pm 9.4 8.8 7.3 87 1.0 CALM 0 0 0 0 1013.0 1013.1 0.0
29/10:30pm 9.9 9.3 7.2 83 1.3 CALM 0 0 0 0 1013.2 1013.3 0.0
29/10:00pm 10.8 10.3 7.9 82 1.4 CALM 0 0 0 0 1013.4 1013.5 0.0
29/09:30pm 11.0 10.2 6.7 75 2.1 CALM 0 0 0 0 1013.4 1013.5 0.0
29/09:00pm 15.0 13.0 8.5 65 3.3 N 9 11 5 6 1013.4 1013.5 0.0
29/08:30pm 15.9 13.8 8.4 61 3.8 N 9 13 5 7 1013.4 1013.5 0.0
29/08:00pm 16.5 13.6 8.2 58 4.3 N 13 15 7 8 1013.1 1013.2 0.0
29/07:30pm 17.2 15.0 7.8 54 4.8 N 9 13 5 7 1013.0 1013.1 0.0
29/07:00pm 18.4 15.4 7.5 49 5.6 N 13 17 7 9 1012.7 1012.8 0.0
29/06:30pm 18.7 16.0 7.2 47 5.9 N 11 17 6 9 1012.6 1012.7 0.0
29/06:00pm 19.8 16.2 6.9 43 6.6 N 15 20 8 11 1012.4 1012.5 0.0
29/05:30pm 20.4 16.9 7.1 42 6.8 NNW 15 24 8 13 1012.4 1012.5 0.0
29/05:00pm 20.8 16.9 7.1 41 7.1 NNW 17 28 9 15 1012.3 1012.4 0.0
29/04:30pm 20.9 16.5 6.4 39 7.4 NNW 19 30 10 16 1012.3 1012.4 0.0
29/04:00pm 21.0 16.5 6.9 40 7.3 NNW 20 32 11 17 1012.3 1012.4 0.0
29/03:30pm 21.2 17.2 6.7 39 7.4 NNW 17 26 9 14 1012.5 1012.6 0.0
29/03:00pm 20.9 17.3 6.8 40 7.2 WNW 15 24 8 13 1012.7 1012.8 0.0
29/02:30pm 20.8 16.1 7.8 43 6.8 NW 22 35 12 19 1013.1 1013.2 0.0
29/02:00pm 20.5 16.9 8.5 46 6.3 NW 17 30 9 16 1013.5 1013.6 0.0
29/01:30pm 19.7 15.0 7.8 46 6.2 NNW 22 32 12 17 1013.7 1013.8 0.0
29/01:00pm 19.2 15.1 7.9 48 5.9 NNW 19 28 10 15 1014.0 1014.1 0.0
29/12:30pm 18.8 15.5 8.2 50 5.5 NNW 15 20 8 11 1014.1 1014.2 0.0
29/12:00pm 17.3 14.0 7.9 54 4.8 N 15 20 8 11 1014.4 1014.6 0.0
29/11:30am 18.2 16.0 7.9 51 5.3 N 9 17 5 9 1014.5 1014.7 0.0
29/11:00am 17.2 14.3 6.7 50 5.2 NE 11 17 6 9 1014.8 1015.0 0.0
29/10:30am 16.8 13.5 6.3 50 5.2 NE 13 20 7 11 1014.7 1014.9 0.0
29/10:00am 16.2 13.3 6.3 52 4.9 NE 11 20 6 11 1015.0 1015.2 0.0
29/09:30am 15.6 14.7 7.9 60 3.9 ENE 2 7 1 4 1015.0 1015.2 0.0
29/09:00am 14.2 13.3 7.9 66 3.2 N 2 7 1 4 1015.0 1015.2 0.0
29/08:30am 13.5 12.0 9.2 75 2.2 NW 7 13 4 7 1015.0 1015.2 0.0
29/08:00am 12.5 10.9 8.8 78 1.9 W 7 13 4 7 1014.7 1014.9 0.0
29/07:30am 10.9 10.5 8.1 83 1.4 CALM 0 0 0 0 1014.5 1014.7 0.0
29/07:00am 8.3 7.6 6.9 91 0.7 CALM 0 0 0 0 1014.3 1014.5 0.0
29/06:30am 6.7 5.3 5.3 91 0.6 WNW 2 7 1 4 1013.7 1013.8 0.0

Other Formats:

Comma delimited format used in spreadsheet applications
http://www.bom.gov.au/fwo/IDV60801/IDV60801.94855.axf

JavaScript Object Notation format (JSON) in row-major order
http://www.bom.gov.au/fwo/IDV60801/IDV60801.94855.json